createdAt,value
2023-05-01T00:00:05.890Z,94709.00
2023-05-01T00:01:06.791Z,94705.00
2023-05-01T00:02:06.007Z,94705.00
2023-05-01T00:03:06.121Z,94707.00
2023-05-01T00:04:06.257Z,94705.00
2023-05-01T00:05:06.204Z,94705.00
2023-05-01T00:06:06.285Z,94705.00
2023-05-01T00:07:06.223Z,94705.00
2023-05-01T00:08:06.301Z,94707.00
2023-05-01T00:09:06.342Z,94705.00
2023-05-01T00:10:06.418Z,94701.00
2023-05-01T00:11:06.438Z,94703.00
2023-05-01T00:12:06.457Z,94699.00
2023-05-01T00:13:06.558Z,94699.00
2023-05-01T00:14:06.648Z,94697.00
2023-05-01T00:15:06.658Z,94699.00
2023-05-01T00:16:06.729Z,94699.00
2023-05-01T00:17:06.714Z,94699.00
2023-05-01T00:18:06.829Z,94697.00
2023-05-01T00:19:06.910Z,94699.00
2023-05-01T00:20:06.919Z,94699.00
2023-05-01T00:21:07.011Z,94699.00
2023-05-01T00:22:07.001Z,94703.00
2023-05-01T00:23:07.125Z,94703.00
2023-05-01T00:24:07.126Z,94705.00
2023-05-01T00:25:07.203Z,94703.00
2023-05-01T00:26:07.247Z,94701.00
2023-05-01T00:27:07.304Z,94701.00
2023-05-01T00:28:07.350Z,94697.00
2023-05-01T00:29:07.409Z,94699.00
2023-05-01T00:30:07.426Z,94695.00
2023-05-01T00:31:07.492Z,94697.00
2023-05-01T00:32:07.638Z,94693.00
2023-05-01T00:33:07.618Z,94693.00
2023-05-01T00:34:07.636Z,94691.00
2023-05-01T00:35:07.723Z,94689.00
2023-05-01T00:36:07.775Z,94689.00
2023-05-01T00:37:07.848Z,94691.00
2023-05-01T00:38:07.826Z,94691.00
2023-05-01T00:39:07.916Z,94691.00
2023-05-01T00:40:07.971Z,94697.00
2023-05-01T00:41:08.198Z,94695.00
2023-05-01T00:42:08.082Z,94691.00
2023-05-01T00:43:08.135Z,94693.00
2023-05-01T00:44:08.210Z,94693.00
2023-05-01T00:45:08.213Z,94689.00
2023-05-01T00:46:08.421Z,94689.00
2023-05-01T00:47:08.334Z,94691.00
2023-05-01T00:48:08.478Z,94687.00
2023-05-01T00:49:08.418Z,94683.00
2023-05-01T00:50:08.496Z,94683.00
2023-05-01T00:51:08.538Z,94683.00
2023-05-01T00:52:08.659Z,94687.00
2023-05-01T00:53:08.648Z,94687.00
2023-05-01T00:54:08.729Z,94685.00
2023-05-01T00:55:08.847Z,94683.00
2023-05-01T00:56:08.884Z,94683.00
2023-05-01T00:57:08.885Z,94682.00
2023-05-01T00:58:09.006Z,94683.00
2023-05-01T00:59:09.076Z,94682.00
2023-05-01T01:00:09.117Z,94678.00
2023-05-01T01:01:09.185Z,94680.00
2023-05-01T01:02:09.181Z,94680.00
2023-05-01T01:03:09.331Z,94678.00
2023-05-01T01:04:09.346Z,94668.00
2023-05-01T01:05:09.307Z,94670.00
2023-05-01T01:06:09.527Z,94670.00
2023-05-01T01:07:09.463Z,94674.00
2023-05-01T01:08:09.522Z,94676.00
2023-05-01T01:09:09.540Z,94676.00
2023-05-01T01:10:09.600Z,94678.00
2023-05-01T01:11:09.652Z,94678.00
2023-05-01T01:12:09.742Z,94672.00
2023-05-01T01:13:09.812Z,94670.00
2023-05-01T01:14:09.843Z,94672.00
2023-05-01T01:15:09.946Z,94670.00
2023-05-01T01:16:09.996Z,94666.00
2023-05-01T01:17:10.230Z,94668.00
2023-05-01T01:18:10.185Z,94668.00
2023-05-01T01:19:10.158Z,94670.00
2023-05-01T01:20:10.230Z,94672.00
2023-05-01T01:21:10.243Z,94670.00
2023-05-01T01:22:10.318Z,94670.00
2023-05-01T01:23:10.396Z,94670.00
2023-05-01T01:24:10.402Z,94670.00
2023-05-01T01:25:10.472Z,94670.00
2023-05-01T01:26:10.507Z,94668.00
2023-05-01T01:27:10.582Z,94668.00
2023-05-01T01:28:10.639Z,94668.00
2023-05-01T01:29:10.696Z,94668.00
2023-05-01T01:30:10.705Z,94670.00
2023-05-01T01:31:10.857Z,94668.00
2023-05-01T01:32:10.871Z,94668.00
2023-05-01T01:33:10.965Z,94670.00
2023-05-01T01:34:10.979Z,94668.00
2023-05-01T01:35:11.051Z,94666.00
2023-05-01T01:36:11.072Z,94666.00
2023-05-01T01:37:11.141Z,94664.00
2023-05-01T01:38:11.209Z,94666.00
2023-05-01T01:39:11.273Z,94662.00
2023-05-01T01:40:11.336Z,94662.00
2023-05-01T01:41:11.452Z,94662.00
2023-05-01T01:42:11.473Z,94662.00
2023-05-01T01:43:11.572Z,94658.00
2023-05-01T01:44:11.621Z,94660.00
2023-05-01T01:45:11.669Z,94656.00
2023-05-01T01:46:11.785Z,94658.00
2023-05-01T01:47:11.739Z,94660.00
2023-05-01T01:48:11.866Z,94658.00
2023-05-01T01:49:11.912Z,94656.00
2023-05-01T01:50:11.948Z,94656.00
2023-05-01T01:51:12.036Z,94656.00
2023-05-01T01:52:12.081Z,94656.00
2023-05-01T01:53:12.169Z,94654.00
2023-05-01T01:54:12.168Z,94652.00
2023-05-01T01:55:12.310Z,94654.00
2023-05-01T01:56:12.314Z,94652.00
2023-05-01T01:57:12.365Z,94652.00
2023-05-01T01:58:12.432Z,94652.00
2023-05-01T01:59:12.546Z,94652.00
2023-05-01T02:00:12.606Z,94652.00
2023-05-01T02:01:12.697Z,94654.00
2023-05-01T02:02:12.763Z,94654.00
2023-05-01T02:03:12.920Z,94652.00
2023-05-01T02:04:12.839Z,94654.00
2023-05-01T02:05:12.861Z,94648.00
2023-05-01T02:06:13.009Z,94650.00
2023-05-01T02:07:13.013Z,94648.00
2023-05-01T02:08:13.087Z,94646.00
2023-05-01T02:09:13.089Z,94648.00
2023-05-01T02:10:13.187Z,94648.00
2023-05-01T02:11:13.236Z,94646.00
2023-05-01T02:12:13.322Z,94646.00
2023-05-01T02:13:13.417Z,94646.00
2023-05-01T02:14:13.429Z,94646.00
2023-05-01T02:15:13.468Z,94646.00
2023-05-01T02:16:13.605Z,94644.00
2023-05-01T02:17:13.634Z,94644.00
2023-05-01T02:18:13.697Z,94635.00
2023-05-01T02:19:13.778Z,94637.00
2023-05-01T02:20:13.766Z,94637.00
2023-05-01T02:21:13.810Z,94644.00
2023-05-01T02:22:13.876Z,94637.00
2023-05-01T02:23:13.932Z,94635.00
2023-05-01T02:24:13.997Z,94635.00
2023-05-01T02:25:14.044Z,94637.00
2023-05-01T02:26:14.157Z,94637.00
2023-05-01T02:27:14.180Z,94635.00
2023-05-01T02:28:14.217Z,94635.00
2023-05-01T02:29:14.315Z,94633.00
2023-05-01T02:30:14.303Z,94631.00
2023-05-01T02:31:14.419Z,94627.00
2023-05-01T02:32:14.401Z,94627.00
2023-05-01T02:33:14.464Z,94627.00
2023-05-01T02:34:14.467Z,94627.00
2023-05-01T02:35:14.580Z,94627.00
2023-05-01T02:36:14.661Z,94625.00
2023-05-01T02:37:14.690Z,94625.00
2023-05-01T02:38:14.697Z,94625.00
2023-05-01T02:39:15.363Z,94623.00
2023-05-01T02:40:14.871Z,94621.00
2023-05-01T02:41:14.928Z,94621.00
2023-05-01T02:42:15.011Z,94623.00
2023-05-01T02:43:15.042Z,94625.00
2023-05-01T02:44:15.095Z,94621.00
2023-05-01T02:45:15.130Z,94623.00
2023-05-01T02:46:15.241Z,94621.00
2023-05-01T02:47:15.269Z,94621.00
2023-05-01T02:48:15.311Z,94623.00
2023-05-01T02:49:15.351Z,94621.00
2023-05-01T02:50:15.379Z,94619.00
2023-05-01T02:51:15.462Z,94617.00
2023-05-01T02:52:15.505Z,94611.00
2023-05-01T02:53:15.534Z,94613.00
2023-05-01T02:54:15.633Z,94609.00
2023-05-01T02:55:15.707Z,94611.00
2023-05-01T02:56:15.688Z,94613.00
2023-05-01T02:57:15.761Z,94613.00
2023-05-01T02:58:15.780Z,94613.00
2023-05-01T02:59:15.868Z,94613.00
2023-05-01T03:00:15.934Z,94613.00
2023-05-01T03:01:16.030Z,94613.00
2023-05-01T03:02:16.025Z,94615.00
2023-05-01T03:03:16.154Z,94613.00
2023-05-01T03:04:16.130Z,94615.00
2023-05-01T03:05:16.163Z,94609.00
2023-05-01T03:06:16.210Z,94609.00
2023-05-01T03:07:16.232Z,94607.00
2023-05-01T03:08:16.289Z,94607.00
2023-05-01T03:09:16.295Z,94609.00
2023-05-01T03:10:16.388Z,94609.00
2023-05-01T03:11:16.433Z,94607.00
2023-05-01T03:12:16.444Z,94611.00
2023-05-01T03:13:16.559Z,94607.00
2023-05-01T03:14:16.535Z,94607.00
2023-05-01T03:15:16.600Z,94605.00
2023-05-01T03:16:16.613Z,94599.00
2023-05-01T03:17:16.669Z,94599.00
2023-05-01T03:18:16.717Z,94601.00
2023-05-01T03:19:16.727Z,94599.00
2023-05-01T03:20:16.784Z,94597.00
2023-05-01T03:21:16.779Z,94597.00
2023-05-01T03:22:16.864Z,94595.00
2023-05-01T03:23:16.855Z,94593.00
2023-05-01T03:24:16.876Z,94595.00
2023-05-01T03:25:16.942Z,94595.00
2023-05-01T03:26:16.913Z,94597.00
2023-05-01T03:27:17.035Z,94597.00
2023-05-01T03:28:16.982Z,94597.00
2023-05-01T03:29:16.995Z,94597.00
2023-05-01T03:30:17.073Z,94597.00
2023-05-01T03:31:17.111Z,94593.00
2023-05-01T03:32:17.283Z,94593.00
2023-05-01T03:33:17.166Z,94589.00
2023-05-01T03:34:17.231Z,94589.00
2023-05-01T03:35:17.282Z,94595.00
2023-05-01T03:36:17.256Z,94593.00
2023-05-01T03:37:17.364Z,94593.00
2023-05-01T03:38:17.365Z,94591.00
2023-05-01T03:39:17.375Z,94587.00
2023-05-01T03:40:17.449Z,94587.00
2023-05-01T03:41:17.497Z,94587.00
2023-05-01T03:42:17.531Z,94587.00
2023-05-01T03:43:17.569Z,94583.00
2023-05-01T03:44:17.622Z,94585.00
2023-05-01T03:45:17.673Z,94587.00
2023-05-01T03:46:17.705Z,94583.00
2023-05-01T03:47:17.680Z,94585.00
2023-05-01T03:48:17.696Z,94582.00
2023-05-01T03:49:17.750Z,94582.00
2023-05-01T03:50:17.748Z,94580.00
2023-05-01T03:51:17.809Z,94580.00
2023-05-01T03:52:17.760Z,94580.00
2023-05-01T03:53:17.829Z,94580.00
2023-05-01T03:54:17.842Z,94578.00
2023-05-01T03:55:17.859Z,94578.00
2023-05-01T03:56:17.851Z,94576.00
2023-05-01T03:57:17.894Z,94576.00
2023-05-01T03:58:17.929Z,94576.00
2023-05-01T03:59:17.976Z,94572.00
2023-05-01T04:00:18.030Z,94576.00
2023-05-01T04:01:18.037Z,94570.00
2023-05-01T04:02:18.124Z,94568.00
2023-05-01T04:03:18.215Z,94570.00
2023-05-01T04:04:18.252Z,94572.00
2023-05-01T04:05:18.235Z,94572.00
2023-05-01T04:06:18.281Z,94572.00
2023-05-01T04:07:18.254Z,94574.00
2023-05-01T04:08:18.236Z,94572.00
2023-05-01T04:09:18.220Z,94574.00
2023-05-01T04:10:18.261Z,94574.00
2023-05-01T04:11:18.270Z,94574.00
2023-05-01T04:12:18.270Z,94572.00
2023-05-01T04:13:18.283Z,94574.00
2023-05-01T04:14:18.243Z,94570.00
2023-05-01T04:15:18.231Z,94572.00
2023-05-01T04:16:18.368Z,94572.00
2023-05-01T04:17:18.262Z,94572.00
2023-05-01T04:18:18.296Z,94574.00
2023-05-01T04:19:18.257Z,94572.00
2023-05-01T04:20:18.225Z,94572.00
2023-05-01T04:21:18.268Z,94572.00
2023-05-01T04:22:18.301Z,94574.00
2023-05-01T04:23:18.293Z,94572.00
2023-05-01T04:24:18.292Z,94572.00
2023-05-01T04:25:18.288Z,94570.00
2023-05-01T04:26:18.333Z,94570.00
2023-05-01T04:27:18.307Z,94564.00
2023-05-01T04:28:18.323Z,94568.00
2023-05-01T04:29:18.327Z,94570.00
2023-05-01T04:30:18.346Z,94568.00
2023-05-01T04:31:18.383Z,94566.00
2023-05-01T04:32:18.400Z,94566.00
2023-05-01T04:33:18.403Z,94568.00
2023-05-01T04:34:18.411Z,94570.00
2023-05-01T04:35:18.424Z,94568.00
2023-05-01T04:36:18.434Z,94566.00
2023-05-01T04:37:18.461Z,94566.00
2023-05-01T04:38:18.438Z,94564.00
2023-05-01T04:39:18.449Z,94564.00
2023-05-01T04:40:18.449Z,94564.00
2023-05-01T04:41:18.455Z,94566.00
2023-05-01T04:42:18.405Z,94566.00
2023-05-01T04:43:18.463Z,94564.00
2023-05-01T04:44:18.418Z,94564.00
2023-05-01T04:45:18.435Z,94564.00
2023-05-01T04:46:18.474Z,94566.00
2023-05-01T04:47:18.465Z,94568.00
2023-05-01T04:48:18.436Z,94568.00
2023-05-01T04:49:18.469Z,94570.00
2023-05-01T04:50:18.418Z,94572.00
2023-05-01T04:51:18.429Z,94568.00
2023-05-01T04:52:18.435Z,94566.00
2023-05-01T04:53:18.441Z,94566.00
2023-05-01T04:54:18.451Z,94566.00
2023-05-01T04:55:18.461Z,94568.00
2023-05-01T04:56:18.409Z,94570.00
2023-05-01T04:57:18.462Z,94570.00
2023-05-01T04:58:18.504Z,94572.00
2023-05-01T04:59:18.418Z,94572.00
2023-05-01T05:00:18.439Z,94574.00
2023-05-01T05:01:18.455Z,94576.00
2023-05-01T05:02:18.498Z,94578.00
2023-05-01T05:03:18.546Z,94576.00
2023-05-01T05:04:18.452Z,94574.00
2023-05-01T05:05:18.462Z,94572.00
2023-05-01T05:06:18.460Z,94574.00
2023-05-01T05:07:18.425Z,94576.00
2023-05-01T05:08:18.547Z,94574.00
2023-05-01T05:09:20.167Z,94578.00
2023-05-01T05:10:18.452Z,94576.00
2023-05-01T05:11:18.457Z,94576.00
2023-05-01T05:12:18.464Z,94578.00
2023-05-01T05:13:18.485Z,94582.00
2023-05-01T05:14:18.477Z,94578.00
2023-05-01T05:15:18.485Z,94578.00
2023-05-01T05:16:18.530Z,94580.00
2023-05-01T05:17:18.507Z,94578.00
2023-05-01T05:18:18.579Z,94578.00
2023-05-01T05:19:18.498Z,94578.00
2023-05-01T05:20:18.479Z,94576.00
2023-05-01T05:21:18.488Z,94578.00
2023-05-01T05:22:18.537Z,94574.00
2023-05-01T05:23:18.538Z,94576.00
2023-05-01T05:24:18.535Z,94574.00
2023-05-01T05:25:18.523Z,94572.00
2023-05-01T05:26:18.496Z,94572.00
2023-05-01T05:27:18.568Z,94570.00
2023-05-01T05:28:18.574Z,94572.00
2023-05-01T05:29:18.531Z,94574.00
2023-05-01T05:30:18.533Z,94572.00
2023-05-01T05:31:18.541Z,94572.00
2023-05-01T05:32:18.647Z,94570.00
2023-05-01T05:33:18.598Z,94572.00
2023-05-01T05:34:18.559Z,94574.00
2023-05-01T05:35:18.567Z,94576.00
2023-05-01T05:36:18.570Z,94576.00
2023-05-01T05:37:18.560Z,94578.00
2023-05-01T05:38:18.549Z,94576.00
2023-05-01T05:39:18.556Z,94578.00
2023-05-01T05:40:18.568Z,94578.00
2023-05-01T05:41:18.584Z,94576.00
2023-05-01T05:42:18.586Z,94576.00
2023-05-01T05:43:18.572Z,94576.00
2023-05-01T05:44:18.584Z,94578.00
2023-05-01T05:45:18.650Z,94578.00
2023-05-01T05:46:18.697Z,94578.00
2023-05-01T05:47:18.655Z,94578.00
2023-05-01T05:48:18.677Z,94580.00
2023-05-01T05:49:18.636Z,94580.00
2023-05-01T05:50:18.668Z,94580.00
2023-05-01T05:51:18.677Z,94578.00
2023-05-01T05:52:18.679Z,94576.00
2023-05-01T05:53:18.686Z,94580.00
2023-05-01T05:54:18.699Z,94576.00
2023-05-01T05:55:18.706Z,94578.00
2023-05-01T05:56:18.713Z,94578.00
2023-05-01T05:57:18.771Z,94578.00
2023-05-01T05:58:18.733Z,94580.00
2023-05-01T05:59:18.734Z,94578.00
2023-05-01T06:00:18.716Z,94578.00
2023-05-01T06:01:18.749Z,94580.00
2023-05-01T06:02:18.942Z,94580.00
2023-05-01T06:03:18.893Z,94582.00
2023-05-01T06:04:18.784Z,94580.00
2023-05-01T06:05:18.824Z,94580.00
2023-05-01T06:06:18.869Z,94576.00
2023-05-01T06:07:18.842Z,94578.00
2023-05-01T06:08:18.856Z,94578.00
2023-05-01T06:09:18.926Z,94578.00
2023-05-01T06:10:18.865Z,94578.00
2023-05-01T06:11:18.874Z,94576.00
2023-05-01T06:12:18.939Z,94574.00
2023-05-01T06:13:18.914Z,94574.00
2023-05-01T06:14:18.944Z,94574.00
2023-05-01T06:15:18.956Z,94576.00
2023-05-01T06:16:18.990Z,94572.00
2023-05-01T06:17:18.976Z,94574.00
2023-05-01T06:18:18.970Z,94572.00
2023-05-01T06:19:19.035Z,94574.00
2023-05-01T06:20:18.987Z,94568.00
2023-05-01T06:21:19.039Z,94574.00
2023-05-01T06:22:19.061Z,94566.00
2023-05-01T06:23:19.055Z,94570.00
2023-05-01T06:24:19.072Z,94566.00
2023-05-01T06:25:19.214Z,94572.00
2023-05-01T06:26:19.085Z,94570.00
2023-05-01T06:27:19.092Z,94572.00
2023-05-01T06:28:19.093Z,94570.00
2023-05-01T06:29:19.106Z,94568.00
2023-05-01T06:30:19.162Z,94570.00
2023-05-01T06:31:19.213Z,94570.00
2023-05-01T06:32:19.162Z,94566.00
2023-05-01T06:33:19.176Z,94566.00
2023-05-01T06:34:19.226Z,94564.00
2023-05-01T06:35:19.180Z,94564.00
2023-05-01T06:36:19.281Z,94564.00
2023-05-01T06:37:19.195Z,94566.00
2023-05-01T06:38:19.200Z,94564.00
2023-05-01T06:39:19.258Z,94566.00
2023-05-01T06:40:19.217Z,94564.00
2023-05-01T06:41:19.264Z,94560.00
2023-05-01T06:42:19.228Z,94560.00
2023-05-01T06:43:19.262Z,94560.00
2023-05-01T06:44:19.252Z,94562.00
2023-05-01T06:45:19.316Z,94566.00
2023-05-01T06:46:19.334Z,94566.00
2023-05-01T06:47:19.312Z,94564.00
2023-05-01T06:48:19.322Z,94564.00
2023-05-01T06:49:19.339Z,94566.00
2023-05-01T06:50:19.328Z,94566.00
2023-05-01T06:51:19.347Z,94568.00
2023-05-01T06:52:19.369Z,94568.00
2023-05-01T06:53:19.351Z,94568.00
2023-05-01T06:54:19.363Z,94568.00
2023-05-01T06:55:19.365Z,94570.00
2023-05-01T06:56:19.357Z,94570.00
2023-05-01T06:57:19.378Z,94572.00
2023-05-01T06:58:23.870Z,94570.00
2023-05-01T06:59:20.360Z,94568.00
2023-05-01T07:00:19.354Z,94566.00
2023-05-01T07:01:19.458Z,94566.00
2023-05-01T07:02:19.420Z,94566.00
2023-05-01T07:03:19.508Z,94566.00
2023-05-01T07:05:38.643Z,94566.00
2023-05-01T07:06:39.180Z,94568.00
2023-05-01T07:07:42.304Z,94568.00
2023-05-01T07:08:39.673Z,94568.00
2023-05-01T07:09:38.683Z,94568.00
2023-05-01T07:10:40.526Z,94568.00
2023-05-01T07:11:38.628Z,94568.00
2023-05-01T07:12:38.611Z,94566.00
2023-05-01T07:13:38.604Z,94566.00
2023-05-01T07:14:38.604Z,94566.00
2023-05-01T07:15:38.604Z,94568.00
2023-05-01T07:16:38.645Z,94568.00
2023-05-01T07:17:38.686Z,94566.00
2023-05-01T07:18:38.625Z,94566.00
2023-05-01T07:19:38.576Z,94566.00
2023-05-01T07:20:38.591Z,94566.00
2023-05-01T07:21:38.556Z,94568.00
2023-05-01T07:22:38.600Z,94566.00
2023-05-01T07:23:38.560Z,94570.00
2023-05-01T07:24:38.609Z,94572.00
2023-05-01T07:25:38.571Z,94568.00
2023-05-01T07:26:38.564Z,94568.00
2023-05-01T07:27:38.563Z,94566.00
2023-05-01T07:28:38.518Z,94564.00
2023-05-01T07:29:38.536Z,94562.00
2023-05-01T07:30:38.508Z,94566.00
2023-05-01T07:31:38.590Z,94566.00
2023-05-01T07:32:38.574Z,94564.00
2023-05-01T07:33:38.493Z,94560.00
2023-05-01T07:34:38.543Z,94564.00
2023-05-01T07:35:38.573Z,94562.00
2023-05-01T07:36:38.508Z,94562.00
2023-05-01T07:37:38.467Z,94564.00
2023-05-01T07:38:38.450Z,94560.00
2023-05-01T07:39:38.473Z,94564.00
2023-05-01T07:40:38.520Z,94562.00
2023-05-01T07:41:38.455Z,94562.00
2023-05-01T07:42:38.463Z,94562.00
2023-05-01T07:43:38.450Z,94560.00
2023-05-01T07:44:38.393Z,94560.00
2023-05-01T07:45:38.485Z,94558.00
2023-05-01T07:46:38.477Z,94558.00
2023-05-01T07:47:38.493Z,94552.00
2023-05-01T07:48:39.054Z,94556.00
2023-05-01T07:49:38.402Z,94556.00
2023-05-01T07:50:38.383Z,94558.00
2023-05-01T07:51:38.378Z,94556.00
2023-05-01T07:52:38.404Z,94560.00
2023-05-01T07:53:38.354Z,94556.00
2023-05-01T07:54:38.351Z,94556.00
2023-05-01T07:55:38.363Z,94554.00
2023-05-01T07:56:38.367Z,94554.00
2023-05-01T07:57:45.853Z,94552.00
2023-05-01T07:58:38.312Z,94554.00
2023-05-01T07:59:38.325Z,94554.00
2023-05-01T08:00:38.306Z,94556.00
2023-05-01T08:01:38.318Z,94556.00
2023-05-01T08:02:38.405Z,94554.00
2023-05-01T08:03:38.339Z,94552.00
2023-05-01T08:04:38.375Z,94554.00
2023-05-01T08:05:38.274Z,94552.00
2023-05-01T08:06:38.373Z,94550.00
2023-05-01T08:07:38.286Z,94548.00
2023-05-01T08:08:38.294Z,94550.00
2023-05-01T08:09:38.258Z,94548.00
2023-05-01T08:10:38.260Z,94548.00
2023-05-01T08:11:38.272Z,94548.00
2023-05-01T08:12:38.264Z,94548.00
2023-05-01T08:13:38.218Z,94548.00
2023-05-01T08:14:38.228Z,94548.00
2023-05-01T08:15:38.243Z,94548.00
2023-05-01T08:16:38.353Z,94550.00
2023-05-01T08:17:38.214Z,94550.00
2023-05-01T08:18:38.240Z,94554.00
2023-05-01T08:19:38.227Z,94552.00
2023-05-01T08:20:38.168Z,94552.00
2023-05-01T08:21:38.161Z,94548.00
2023-05-01T08:22:38.196Z,94548.00
2023-05-01T08:23:38.154Z,94544.00
2023-05-01T08:24:38.126Z,94550.00
2023-05-01T08:25:38.137Z,94548.00
2023-05-01T08:26:38.169Z,94548.00
2023-05-01T08:27:38.114Z,94548.00
2023-05-01T08:28:38.129Z,94550.00
2023-05-01T08:29:38.153Z,94552.00
2023-05-01T08:30:38.144Z,94548.00
2023-05-01T08:31:38.155Z,94550.00
2023-05-01T08:32:38.127Z,94548.00
2023-05-01T08:33:38.085Z,94546.00
2023-05-01T08:34:38.063Z,94546.00
2023-05-01T08:35:38.083Z,94546.00
2023-05-01T08:36:38.084Z,94544.00
2023-05-01T08:37:38.078Z,94544.00
2023-05-01T08:38:38.089Z,94544.00
2023-05-01T08:39:38.058Z,94541.00
2023-05-01T08:40:38.018Z,94541.00
2023-05-01T08:41:37.998Z,94541.00
2023-05-01T08:42:38.040Z,94541.00
2023-05-01T08:43:37.977Z,94539.00
2023-05-01T08:44:37.999Z,94539.00
2023-05-01T08:45:38.139Z,94537.00
2023-05-01T08:46:37.994Z,94535.00
2023-05-01T08:47:38.034Z,94533.00
2023-05-01T08:48:37.992Z,94531.00
2023-05-01T08:49:37.951Z,94531.00
2023-05-01T08:50:37.960Z,94531.00
2023-05-01T08:51:37.927Z,94533.00
2023-05-01T08:52:37.978Z,94535.00
2023-05-01T08:53:37.937Z,94533.00
2023-05-01T08:54:37.950Z,94533.00
2023-05-01T08:55:37.897Z,94531.00
2023-05-01T08:56:37.898Z,94533.00
2023-05-01T08:57:37.911Z,94533.00
2023-05-01T08:58:37.980Z,94531.00
2023-05-01T08:59:37.988Z,94533.00
2023-05-01T09:00:38.014Z,94527.00
2023-05-01T09:01:38.126Z,94529.00
2023-05-01T09:02:38.202Z,94529.00
2023-05-01T09:03:38.182Z,94525.00
2023-05-01T09:04:38.126Z,94527.00
2023-05-01T09:05:38.154Z,94525.00
2023-05-01T09:06:38.274Z,94525.00
2023-05-01T09:07:38.247Z,94521.00
2023-05-01T09:08:38.244Z,94525.00
2023-05-01T09:09:38.298Z,94519.00
2023-05-01T09:10:38.359Z,94525.00
2023-05-01T09:11:38.401Z,94527.00
2023-05-01T09:12:38.468Z,94525.00
2023-05-01T09:13:38.471Z,94523.00
2023-05-01T09:14:38.548Z,94521.00
2023-05-01T09:15:38.578Z,94521.00
2023-05-01T09:16:38.684Z,94523.00
2023-05-01T09:17:38.743Z,94519.00
2023-05-01T09:18:38.721Z,94519.00
2023-05-01T09:19:38.769Z,94521.00
2023-05-01T09:20:38.821Z,94523.00
2023-05-01T09:21:38.868Z,94521.00
2023-05-01T09:22:38.945Z,94521.00
2023-05-01T09:23:38.960Z,94519.00
2023-05-01T09:24:39.003Z,94519.00
2023-05-01T09:25:39.078Z,94517.00
2023-05-01T09:26:39.125Z,94513.00
2023-05-01T09:27:39.167Z,94511.00
2023-05-01T09:28:39.196Z,94511.00
2023-05-01T09:29:39.305Z,94505.00
2023-05-01T09:30:39.316Z,94509.00
2023-05-01T09:31:39.411Z,94503.00
2023-05-01T09:32:40.825Z,94501.00
2023-05-01T09:33:39.473Z,94501.00
2023-05-01T09:34:39.443Z,94501.00
2023-05-01T09:35:39.420Z,94497.00
2023-05-01T09:36:39.411Z,94497.00
2023-05-01T09:37:39.439Z,94493.00
2023-05-01T09:38:39.419Z,94493.00
2023-05-01T09:39:39.432Z,94491.00
2023-05-01T09:40:39.386Z,94489.00
2023-05-01T09:41:39.434Z,94489.00
2023-05-01T09:42:39.526Z,94488.00
2023-05-01T09:43:39.378Z,94486.00
2023-05-01T09:44:39.347Z,94489.00
2023-05-01T09:45:39.405Z,94486.00
2023-05-01T09:46:39.593Z,94489.00
2023-05-01T09:47:39.377Z,94489.00
2023-05-01T09:48:39.332Z,94488.00
2023-05-01T09:49:39.355Z,94488.00
2023-05-01T09:50:39.345Z,94488.00
2023-05-01T09:51:39.286Z,94486.00
2023-05-01T09:52:39.290Z,94486.00
2023-05-01T09:53:39.347Z,94486.00
2023-05-01T09:54:39.274Z,94486.00
2023-05-01T09:55:39.318Z,94482.00
2023-05-01T09:56:39.439Z,94482.00
2023-05-01T09:57:39.275Z,94480.00
2023-05-01T09:58:39.240Z,94478.00
2023-05-01T09:59:39.233Z,94478.00
2023-05-01T10:00:39.255Z,94478.00
2023-05-01T10:01:39.345Z,94476.00
2023-05-01T10:02:39.363Z,94474.00
2023-05-01T10:03:39.514Z,94470.00
2023-05-01T10:04:39.225Z,94472.00
2023-05-01T10:05:39.181Z,94472.00
2023-05-01T10:06:39.271Z,94468.00
2023-05-01T10:07:39.227Z,94466.00
2023-05-01T10:08:39.148Z,94466.00
2023-05-01T10:09:39.172Z,94462.00
2023-05-01T10:10:39.168Z,94462.00
2023-05-01T10:11:39.173Z,94462.00
2023-05-01T10:12:39.121Z,94462.00
2023-05-01T10:13:39.176Z,94464.00
2023-05-01T10:14:39.169Z,94464.00
2023-05-01T10:15:39.211Z,94460.00
2023-05-01T10:16:39.353Z,94460.00
2023-05-01T10:17:39.484Z,94460.00
2023-05-01T10:18:39.368Z,94456.00
2023-05-01T10:19:39.412Z,94460.00
2023-05-01T10:20:39.502Z,94456.00
2023-05-01T10:21:39.561Z,94456.00
2023-05-01T10:22:39.603Z,94454.00
2023-05-01T10:23:39.576Z,94452.00
2023-05-01T10:24:39.779Z,94452.00
2023-05-01T10:25:39.733Z,94450.00
2023-05-01T10:26:39.740Z,94450.00
2023-05-01T10:27:39.856Z,94450.00
2023-05-01T10:28:39.845Z,94450.00
2023-05-01T10:29:39.881Z,94450.00
2023-05-01T10:30:39.971Z,94450.00
2023-05-01T10:31:41.676Z,94448.00
2023-05-01T10:32:40.162Z,94450.00
2023-05-01T10:33:40.140Z,94450.00
2023-05-01T10:34:40.188Z,94448.00
2023-05-01T10:35:40.235Z,94448.00
2023-05-01T10:36:40.262Z,94450.00
2023-05-01T10:37:40.331Z,94442.00
2023-05-01T10:38:40.391Z,94446.00
2023-05-01T10:39:40.446Z,94446.00
2023-05-01T10:40:40.510Z,94444.00
2023-05-01T10:41:40.502Z,94442.00
2023-05-01T10:42:40.615Z,94442.00
2023-05-01T10:43:40.593Z,94439.00
2023-05-01T10:44:40.825Z,94439.00
2023-05-01T10:45:40.691Z,94441.00
2023-05-01T10:46:40.764Z,94437.00
2023-05-01T10:47:40.760Z,94435.00
2023-05-01T10:48:40.834Z,94433.00
2023-05-01T10:49:40.804Z,94431.00
2023-05-01T10:50:40.864Z,94431.00
2023-05-01T10:51:40.923Z,94435.00
2023-05-01T10:52:40.951Z,94429.00
2023-05-01T10:53:40.940Z,94427.00
2023-05-01T10:54:40.995Z,94427.00
2023-05-01T10:55:41.050Z,94427.00
2023-05-01T10:56:41.070Z,94427.00
2023-05-01T10:57:41.065Z,94427.00
2023-05-01T10:58:41.113Z,94425.00
2023-05-01T10:59:41.134Z,94423.00
2023-05-01T11:00:41.282Z,94421.00
2023-05-01T11:01:41.318Z,94415.00
2023-05-01T11:02:41.262Z,94413.00
2023-05-01T11:03:41.252Z,94411.00
2023-05-01T11:04:41.324Z,94407.00
2023-05-01T11:05:41.379Z,94407.00
2023-05-01T11:06:41.377Z,94407.00
2023-05-01T11:07:41.376Z,94409.00
2023-05-01T11:08:41.455Z,94409.00
2023-05-01T11:09:41.535Z,94407.00
2023-05-01T11:10:41.457Z,94405.00
2023-05-01T11:11:41.508Z,94403.00
2023-05-01T11:12:41.612Z,94399.00
2023-05-01T11:13:41.588Z,94399.00
2023-05-01T11:14:41.591Z,94397.00
2023-05-01T11:15:41.613Z,94397.00
2023-05-01T11:16:41.792Z,94397.00
2023-05-01T11:17:41.917Z,94397.00
2023-05-01T11:18:41.720Z,94399.00
2023-05-01T11:19:41.738Z,94399.00
2023-05-01T11:20:41.740Z,94399.00
2023-05-01T11:21:41.827Z,94397.00
2023-05-01T11:22:41.798Z,94395.00
2023-05-01T11:23:41.801Z,94395.00
2023-05-01T11:24:41.971Z,94395.00
2023-05-01T11:25:41.827Z,94394.00
2023-05-01T11:26:41.876Z,94394.00
2023-05-01T11:27:41.890Z,94394.00
2023-05-01T11:28:41.927Z,94395.00
2023-05-01T11:29:41.948Z,94392.00
2023-05-01T11:30:42.040Z,94388.00
2023-05-01T11:31:42.099Z,94380.00
2023-05-01T11:32:41.997Z,94380.00
2023-05-01T11:33:42.028Z,94390.00
2023-05-01T11:34:42.036Z,94378.00
2023-05-01T11:35:42.095Z,94388.00
2023-05-01T11:36:42.074Z,94378.00
2023-05-01T11:37:42.130Z,94376.00
2023-05-01T11:38:42.165Z,94376.00
2023-05-01T11:39:42.179Z,94376.00
2023-05-01T11:40:42.176Z,94378.00
2023-05-01T11:41:42.249Z,94376.00
2023-05-01T11:42:42.191Z,94374.00
2023-05-01T11:43:42.222Z,94370.00
2023-05-01T11:44:42.309Z,94372.00
2023-05-01T11:45:42.331Z,94370.00